sensor_id;sensor_type;location;lat;lon;timestamp;pressure;altitude;pressure_sealevel;temperature;humidity
7182;BME280;3632;42.724;23.298;2023-04-04T00:02:13;93970.88;;;10.09;100.00
7182;BME280;3632;42.724;23.298;2023-04-04T00:04:40;93930.09;;;9.76;100.00
7182;BME280;3632;42.724;23.298;2023-04-04T00:07:07;93977.72;;;10.09;100.00
7182;BME280;3632;42.724;23.298;2023-04-04T00:09:33;93859.34;;;8.65;100.00
7182;BME280;3632;42.724;23.298;2023-04-04T00:12:02;93966.97;;;9.97;100.00
7182;BME280;3632;42.724;23.298;2023-04-04T00:14:30;93969.63;;;9.88;100.00
7182;BME280;3632;42.724;23.298;2023-04-04T00:16:57;93980.66;;;9.79;100.00
7182;BME280;3632;42.724;23.298;2023-04-04T00:19:24;93988.91;;;9.98;100.00
7182;BME280;3632;42.724;23.298;2023-04-04T00:21:51;93977.06;;;9.89;100.00
7182;BME280;3632;42.724;23.298;2023-04-04T00:24:18;93377.97;;;5.90;100.00
7182;BME280;3632;42.724;23.298;2023-04-04T00:26:45;93968.38;;;9.92;100.00
7182;BME280;3632;42.724;23.298;2023-04-04T00:29:13;93908.38;;;9.46;100.00
7182;BME280;3632;42.724;23.298;2023-04-04T00:31:40;93326.56;;;5.63;100.00
7182;BME280;3632;42.724;23.298;2023-04-04T00:34:07;93908.03;;;9.23;100.00
7182;BME280;3632;42.724;23.298;2023-04-04T00:36:34;93857.41;;;9.12;100.00
7182;BME280;3632;42.724;23.298;2023-04-04T00:39:01;93860.53;;;9.41;100.00
7182;BME280;3632;42.724;23.298;2023-04-04T00:41:28;93940.06;;;9.95;100.00
7182;BME280;3632;42.724;23.298;2023-04-04T00:43:56;93878.50;;;9.66;100.00
7182;BME280;3632;42.724;23.298;2023-04-04T00:46:24;93936.16;;;10.00;100.00
7182;BME280;3632;42.724;23.298;2023-04-04T00:48:53;93836.38;;;9.45;100.00
7182;BME280;3632;42.724;23.298;2023-04-04T00:51:20;93932.00;;;9.99;100.00
7182;BME280;3632;42.724;23.298;2023-04-04T00:53:47;93809.19;;;9.20;100.00
7182;BME280;3632;42.724;23.298;2023-04-04T00:56:16;93868.34;;;9.48;100.00
7182;BME280;3632;42.724;23.298;2023-04-04T00:58:43;93927.22;;;9.96;100.00
7182;BME280;3632;42.724;23.298;2023-04-04T01:01:12;93924.94;;;9.93;100.00
7182;BME280;3632;42.724;23.298;2023-04-04T01:03:40;93803.75;;;8.44;100.00
7182;BME280;3632;42.724;23.298;2023-04-04T01:06:09;93927.63;;;10.09;100.00
7182;BME280;3632;42.724;23.298;2023-04-04T01:08:36;93862.75;;;9.44;100.00
7182;BME280;3632;42.724;23.298;2023-04-04T01:11:05;93935.63;;;9.53;100.00
7182;BME280;3632;42.724;23.298;2023-04-04T01:13:32;93935.31;;;9.21;100.00
7182;BME280;3632;42.724;23.298;2023-04-04T01:15:59;93920.97;;;8.57;100.00
7182;BME280;3632;42.724;23.298;2023-04-04T01:18:27;93939.94;;;8.90;100.00
7182;BME280;3632;42.724;23.298;2023-04-04T01:20:59;93942.19;;;8.93;100.00
7182;BME280;3632;42.724;23.298;2023-04-04T01:23:34;93948.88;;;8.94;100.00
7182;BME280;3632;42.724;23.298;2023-04-04T01:26:05;93942.50;;;8.90;100.00
7182;BME280;3632;42.724;23.298;2023-04-04T01:28:32;93951.94;;;8.98;100.00
7182;BME280;3632;42.724;23.298;2023-04-04T01:31:00;93608.06;;;6.75;100.00
7182;BME280;3632;42.724;23.298;2023-04-04T01:33:30;93984.97;;;8.98;100.00
7182;BME280;3632;42.724;23.298;2023-04-04T01:36:04;94002.31;;;9.02;100.00
7182;BME280;3632;42.724;23.298;2023-04-04T01:38:42;93953.63;;;9.07;100.00
7182;BME280;3632;42.724;23.298;2023-04-04T01:41:13;93883.38;;;8.43;100.00
7182;BME280;3632;42.724;23.298;2023-04-04T01:43:43;93941.72;;;9.07;100.00
7182;BME280;3632;42.724;23.298;2023-04-04T01:46:10;93931.09;;;9.30;100.00
7182;BME280;3632;42.724;23.298;2023-04-04T01:48:37;93300.38;;;5.17;100.00
7182;BME280;3632;42.724;23.298;2023-04-04T01:51:04;93866.28;;;9.08;100.00
7182;BME280;3632;42.724;23.298;2023-04-04T01:53:31;93922.97;;;9.61;100.00
7182;BME280;3632;42.724;23.298;2023-04-04T01:55:58;93912.91;;;9.78;100.00
7182;BME280;3632;42.724;23.298;2023-04-04T01:58:27;93904.16;;;9.80;100.00
7182;BME280;3632;42.724;23.298;2023-04-04T02:00:54;93898.09;;;9.73;100.00
7182;BME280;3632;42.724;23.298;2023-04-04T02:03:20;93927.97;;;9.71;100.00
7182;BME280;3632;42.724;23.298;2023-04-04T02:05:48;93895.00;;;9.61;100.00
7182;BME280;3632;42.724;23.298;2023-04-04T02:08:14;93898.25;;;9.72;100.00
7182;BME280;3632;42.724;23.298;2023-04-04T02:10:41;93819.69;;;9.25;100.00
7182;BME280;3632;42.724;23.298;2023-04-04T02:13:08;93911.41;;;9.67;100.00
7182;BME280;3632;42.724;23.298;2023-04-04T02:15:37;93908.00;;;9.58;100.00
7182;BME280;3632;42.724;23.298;2023-04-04T02:18:04;93922.09;;;9.53;100.00
7182;BME280;3632;42.724;23.298;2023-04-04T02:20:31;93770.22;;;8.76;100.00
7182;BME280;3632;42.724;23.298;2023-04-04T02:22:58;93896.66;;;9.71;100.00
7182;BME280;3632;42.724;23.298;2023-04-04T02:25:25;93908.50;;;9.62;100.00
7182;BME280;3632;42.724;23.298;2023-04-04T02:27:52;93897.88;;;9.84;100.00
7182;BME280;3632;42.724;23.298;2023-04-04T02:30:18;93899.25;;;9.79;100.00
7182;BME280;3632;42.724;23.298;2023-04-04T02:32:47;93897.91;;;9.67;100.00
7182;BME280;3632;42.724;23.298;2023-04-04T02:35:14;93831.03;;;9.13;100.00
7182;BME280;3632;42.724;23.298;2023-04-04T02:37:43;93891.78;;;9.59;100.00
7182;BME280;3632;42.724;23.298;2023-04-04T02:40:12;93892.75;;;9.58;100.00
7182;BME280;3632;42.724;23.298;2023-04-04T02:42:41;93890.75;;;9.70;100.00
7182;BME280;3632;42.724;23.298;2023-04-04T02:45:09;93860.13;;;9.54;100.00
7182;BME280;3632;42.724;23.298;2023-04-04T02:47:36;93889.59;;;9.64;100.00
7182;BME280;3632;42.724;23.298;2023-04-04T02:50:05;93913.66;;;9.70;100.00
7182;BME280;3632;42.724;23.298;2023-04-04T02:52:32;93901.84;;;9.87;100.00
7182;BME280;3632;42.724;23.298;2023-04-04T02:54:59;93830.63;;;9.43;100.00
7182;BME280;3632;42.724;23.298;2023-04-04T02:57:26;93902.25;;;9.74;100.00
7182;BME280;3632;42.724;23.298;2023-04-04T02:59:52;93906.72;;;9.80;100.00
7182;BME280;3632;42.724;23.298;2023-04-04T03:02:19;93903.63;;;9.69;100.00
7182;BME280;3632;42.724;23.298;2023-04-04T03:04:46;93911.66;;;9.82;100.00
7182;BME280;3632;42.724;23.298;2023-04-04T03:07:14;93908.25;;;9.91;100.00
7182;BME280;3632;42.724;23.298;2023-04-04T03:09:41;93916.44;;;9.85;100.00
7182;BME280;3632;42.724;23.298;2023-04-04T03:12:09;93921.41;;;9.86;100.00
7182;BME280;3632;42.724;23.298;2023-04-04T03:14:36;93913.91;;;9.85;100.00
7182;BME280;3632;42.724;23.298;2023-04-04T03:17:03;93840.19;;;9.41;100.00
7182;BME280;3632;42.724;23.298;2023-04-04T03:19:30;93842.66;;;9.33;100.00
7182;BME280;3632;42.724;23.298;2023-04-04T03:21:57;93621.66;;;8.19;100.00
7182;BME280;3632;42.724;23.298;2023-04-04T03:24:26;93924.22;;;10.01;100.00
7182;BME280;3632;42.724;23.298;2023-04-04T03:26:53;93420.47;;;6.78;100.00
7182;BME280;3632;42.724;23.298;2023-04-04T03:29:20;93907.94;;;9.94;100.00
7182;BME280;3632;42.724;23.298;2023-04-04T03:31:47;93990.44;;;10.09;100.00
7182;BME280;3632;42.724;23.298;2023-04-04T03:34:13;93909.94;;;10.08;100.00
7182;BME280;3632;42.724;23.298;2023-04-04T03:36:40;93909.22;;;9.98;100.00
7182;BME280;3632;42.724;23.298;2023-04-04T03:39:07;93928.47;;;9.92;100.00
7182;BME280;3632;42.724;23.298;2023-04-04T03:41:35;93925.84;;;10.10;100.00
7182;BME280;3632;42.724;23.298;2023-04-04T03:44:03;93521.97;;;7.48;100.00
7182;BME280;3632;42.724;23.298;2023-04-04T03:46:30;93852.56;;;9.62;100.00
7182;BME280;3632;42.724;23.298;2023-04-04T03:48:56;93923.47;;;10.08;100.00
7182;BME280;3632;42.724;23.298;2023-04-04T03:51:23;94032.75;;;10.10;100.00
7182;BME280;3632;42.724;23.298;2023-04-04T03:53:50;93909.84;;;9.92;100.00
7182;BME280;3632;42.724;23.298;2023-04-04T03:56:17;93923.03;;;10.13;100.00
7182;BME280;3632;42.724;23.298;2023-04-04T03:58:45;93700.78;;;8.14;100.00
7182;BME280;3632;42.724;23.298;2023-04-04T04:01:12;93917.22;;;10.03;100.00
7182;BME280;3632;42.724;23.298;2023-04-04T04:03:38;93568.16;;;7.24;100.00
7182;BME280;3632;42.724;23.298;2023-04-04T04:06:06;93784.63;;;9.29;100.00
7182;BME280;3632;42.724;23.298;2023-04-04T04:08:33;93922.31;;;10.03;100.00
7182;BME280;3632;42.724;23.298;2023-04-04T04:11:03;93920.28;;;9.89;100.00
7182;BME280;3632;42.724;23.298;2023-04-04T04:13:30;93830.66;;;8.55;100.00
7182;BME280;3632;42.724;23.298;2023-04-04T04:15:58;93915.28;;;9.53;100.00
7182;BME280;3632;42.724;23.298;2023-04-04T04:18:24;93919.56;;;9.71;100.00
7182;BME280;3632;42.724;23.298;2023-04-04T04:20:55;93889.47;;;9.66;100.00
7182;BME280;3632;42.724;23.298;2023-04-04T04:23:23;93779.66;;;7.94;100.00
7182;BME280;3632;42.724;23.298;2023-04-04T04:25:50;93930.38;;;9.98;100.00
7182;BME280;3632;42.724;23.298;2023-04-04T04:28:16;93314.94;;;6.16;100.00
7182;BME280;3632;42.724;23.298;2023-04-04T04:30:44;93929.00;;;10.04;100.00
7182;BME280;3632;42.724;23.298;2023-04-04T04:33:12;93935.38;;;9.64;100.00
7182;BME280;3632;42.724;23.298;2023-04-04T04:35:39;93939.78;;;9.54;100.00
7182;BME280;3632;42.724;23.298;2023-04-04T04:38:06;93914.03;;;9.22;100.00
7182;BME280;3632;42.724;23.298;2023-04-04T04:40:33;93941.25;;;9.83;100.00
7182;BME280;3632;42.724;23.298;2023-04-04T04:42:59;93957.03;;;9.69;100.00
7182;BME280;3632;42.724;23.298;2023-04-04T04:45:26;93949.66;;;9.57;100.00
7182;BME280;3632;42.724;23.298;2023-04-04T04:47:53;93952.69;;;9.61;100.00
7182;BME280;3632;42.724;23.298;2023-04-04T04:50:21;93953.75;;;9.76;100.00
7182;BME280;3632;42.724;23.298;2023-04-04T04:52:49;93664.88;;;7.92;100.00
7182;BME280;3632;42.724;23.298;2023-04-04T04:55:16;93934.25;;;9.41;100.00
7182;BME280;3632;42.724;23.298;2023-04-04T04:57:45;93898.13;;;9.55;100.00
7182;BME280;3632;42.724;23.298;2023-04-04T05:00:13;93971.34;;;9.87;100.00
7182;BME280;3632;42.724;23.298;2023-04-04T05:02:41;93925.38;;;9.45;100.00
7182;BME280;3632;42.724;23.298;2023-04-04T05:05:08;93952.44;;;9.72;100.00
7182;BME280;3632;42.724;23.298;2023-04-04T05:07:36;93980.84;;;10.03;100.00
7182;BME280;3632;42.724;23.298;2023-04-04T05:10:03;93979.28;;;10.10;100.00
7182;BME280;3632;42.724;23.298;2023-04-04T05:12:30;93987.53;;;10.04;100.00
7182;BME280;3632;42.724;23.298;2023-04-04T05:14:57;94022.38;;;9.86;100.00
7182;BME280;3632;42.724;23.298;2023-04-04T05:17:24;93969.88;;;9.85;100.00
7182;BME280;3632;42.724;23.298;2023-04-04T05:19:51;93859.06;;;9.21;100.00
7182;BME280;3632;42.724;23.298;2023-04-04T05:22:18;93994.28;;;10.13;100.00
7182;BME280;3632;42.724;23.298;2023-04-04T05:24:46;93991.53;;;10.24;100.00
7182;BME280;3632;42.724;23.298;2023-04-04T05:27:13;94018.59;;;10.25;100.00
7182;BME280;3632;42.724;23.298;2023-04-04T05:29:39;94045.13;;;10.23;100.00
7182;BME280;3632;42.724;23.298;2023-04-04T05:32:06;93502.34;;;6.60;100.00
7182;BME280;3632;42.724;23.298;2023-04-04T05:34:33;93991.00;;;10.38;100.00
7182;BME280;3632;42.724;23.298;2023-04-04T05:37:00;93837.63;;;9.41;100.00
7182;BME280;3632;42.724;23.298;2023-04-04T05:39:26;93465.69;;;7.09;100.00
7182;BME280;3632;42.724;23.298;2023-04-04T05:41:55;93867.84;;;9.88;100.00
7182;BME280;3632;42.724;23.298;2023-04-04T05:44:21;94009.53;;;10.82;100.00
7182;BME280;3632;42.724;23.298;2023-04-04T05:46:48;93730.44;;;9.02;100.00
7182;BME280;3632;42.724;23.298;2023-04-04T05:49:15;93938.91;;;10.33;100.00
7182;BME280;3632;42.724;23.298;2023-04-04T05:51:42;94023.66;;;10.69;100.00
7182;BME280;3632;42.724;23.298;2023-04-04T05:54:09;94016.69;;;10.79;100.00
7182;BME280;3632;42.724;23.298;2023-04-04T05:56:35;93959.25;;;10.59;100.00
7182;BME280;3632;42.724;23.298;2023-04-04T05:59:04;94014.38;;;10.16;100.00
7182;BME280;3632;42.724;23.298;2023-04-04T06:01:30;94028.03;;;9.97;100.00
7182;BME280;3632;42.724;23.298;2023-04-04T06:03:57;94015.75;;;10.10;100.00
7182;BME280;3632;42.724;23.298;2023-04-04T06:06:25;93937.56;;;9.59;100.00
7182;BME280;3632;42.724;23.298;2023-04-04T06:08:51;93866.41;;;9.06;100.00
7182;BME280;3632;42.724;23.298;2023-04-04T06:11:18;94023.38;;;10.28;100.00
7182;BME280;3632;42.724;23.298;2023-04-04T06:13:46;94032.44;;;10.48;100.00
7182;BME280;3632;42.724;23.298;2023-04-04T06:16:14;94016.19;;;10.49;100.00
7182;BME280;3632;42.724;23.298;2023-04-04T06:18:41;94046.72;;;10.06;100.00
7182;BME280;3632;42.724;23.298;2023-04-04T06:21:08;93892.41;;;8.55;100.00
7182;BME280;3632;42.724;23.298;2023-04-04T06:23:34;94048.06;;;9.30;100.00
7182;BME280;3632;42.724;23.298;2023-04-04T06:26:01;94059.00;;;8.76;100.00
7182;BME280;3632;42.724;23.298;2023-04-04T06:28:28;94019.91;;;8.49;100.00
7182;BME280;3632;42.724;23.298;2023-04-04T06:30:55;94066.53;;;8.58;100.00
7182;BME280;3632;42.724;23.298;2023-04-04T06:33:23;94066.94;;;8.24;100.00
7182;BME280;3632;42.724;23.298;2023-04-04T06:35:50;93987.16;;;7.61;100.00
7182;BME280;3632;42.724;23.298;2023-04-04T06:38:17;94060.81;;;8.08;100.00
7182;BME280;3632;42.724;23.298;2023-04-04T06:40:44;94082.19;;;7.96;100.00
7182;BME280;3632;42.724;23.298;2023-04-04T06:43:11;94104.59;;;7.81;100.00
7182;BME280;3632;42.724;23.298;2023-04-04T06:45:38;94104.22;;;7.26;100.00
7182;BME280;3632;42.724;23.298;2023-04-04T06:48:05;94110.84;;;6.78;100.00
7182;BME280;3632;42.724;23.298;2023-04-04T06:50:33;93753.75;;;4.48;100.00
7182;BME280;3632;42.724;23.298;2023-04-04T06:53:01;93916.28;;;5.62;100.00
7182;BME280;3632;42.724;23.298;2023-04-04T06:55:27;94150.94;;;7.03;100.00
7182;BME280;3632;42.724;23.298;2023-04-04T06:57:54;94116.56;;;7.10;100.00
7182;BME280;3632;42.724;23.298;2023-04-04T07:00:23;93561.56;;;2.74;98.75
7182;BME280;3632;42.724;23.298;2023-04-04T07:02:56;93995.91;;;5.88;99.74
7182;BME280;3632;42.724;23.298;2023-04-04T07:05:23;94139.53;;;6.88;99.32
7182;BME280;3632;42.724;23.298;2023-04-04T07:07:52;94147.72;;;7.01;100.00
7182;BME280;3632;42.724;23.298;2023-04-04T07:10:19;94090.28;;;6.51;98.63
7182;BME280;3632;42.724;23.298;2023-04-04T07:12:46;94171.84;;;6.96;97.26
7182;BME280;3632;42.724;23.298;2023-04-04T07:15:13;94169.56;;;6.72;98.81
7182;BME280;3632;42.724;23.298;2023-04-04T07:17:40;94156.84;;;6.10;100.00
7182;BME280;3632;42.724;23.298;2023-04-04T07:20:07;94182.03;;;6.00;100.00
7182;BME280;3632;42.724;23.298;2023-04-04T07:22:36;94187.22;;;6.10;100.00
7182;BME280;3632;42.724;23.298;2023-04-04T07:25:06;94095.84;;;5.49;100.00
7182;BME280;3632;42.724;23.298;2023-04-04T07:27:33;94199.97;;;6.40;100.00
7182;BME280;3632;42.724;23.298;2023-04-04T07:30:00;94219.25;;;6.52;100.00
7182;BME280;3632;42.724;23.298;2023-04-04T07:32:27;94218.53;;;6.61;99.79
7182;BME280;3632;42.724;23.298;2023-04-04T07:34:54;94085.16;;;6.00;99.08
7182;BME280;3632;42.724;23.298;2023-04-04T07:37:21;94214.69;;;6.87;98.03
7182;BME280;3632;42.724;23.298;2023-04-04T07:39:47;94183.09;;;6.61;96.43
7182;BME280;3632;42.724;23.298;2023-04-04T07:42:17;93884.88;;;4.70;95.29
7182;BME280;3632;42.724;23.298;2023-04-04T07:44:47;93599.97;;;2.65;95.21
7182;BME280;3632;42.724;23.298;2023-04-04T07:47:14;94237.09;;;6.51;94.07
7182;BME280;3632;42.724;23.298;2023-04-04T07:49:41;94223.97;;;6.46;94.38
7182;BME280;3632;42.724;23.298;2023-04-04T07:52:08;94159.91;;;5.92;93.39
7182;BME280;3632;42.724;23.298;2023-04-04T07:54:35;94232.22;;;6.27;94.18
7182;BME280;3632;42.724;23.298;2023-04-04T07:57:02;94107.44;;;5.63;92.73
7182;BME280;3632;42.724;23.298;2023-04-04T07:59:31;94239.38;;;6.22;94.31
7182;BME280;3632;42.724;23.298;2023-04-04T08:01:58;94237.44;;;6.14;92.85
7182;BME280;3632;42.724;23.298;2023-04-04T08:04:25;94191.59;;;5.96;93.25
7182;BME280;3632;42.724;23.298;2023-04-04T08:06:52;94212.91;;;6.26;91.74
7182;BME280;3632;42.724;23.298;2023-04-04T08:09:19;94246.25;;;6.31;91.83
7182;BME280;3632;42.724;23.298;2023-04-04T08:11:46;94177.81;;;6.01;90.37
7182;BME280;3632;42.724;23.298;2023-04-04T08:14:12;93849.19;;;3.43;89.94
7182;BME280;3632;42.724;23.298;2023-04-04T08:16:41;94254.50;;;6.33;90.42
7182;BME280;3632;42.724;23.298;2023-04-04T08:19:07;94280.47;;;5.92;90.16
7182;BME280;3632;42.724;23.298;2023-04-04T08:21:34;94268.56;;;6.26;90.28
7182;BME280;3632;42.724;23.298;2023-04-04T08:24:01;94275.91;;;6.40;89.46
7182;BME280;3632;42.724;23.298;2023-04-04T08:26:28;94296.28;;;6.27;89.34
7182;BME280;3632;42.724;23.298;2023-04-04T08:28:58;93866.41;;;3.60;88.85
7182;BME280;3632;42.724;23.298;2023-04-04T08:31:26;94186.50;;;5.42;89.31
7182;BME280;3632;42.724;23.298;2023-04-04T08:33:55;93669.94;;;2.14;90.44
7182;BME280;3632;42.724;23.298;2023-04-04T08:36:22;94104.75;;;5.10;90.22
7182;BME280;3632;42.724;23.298;2023-04-04T08:38:48;93979.44;;;3.76;89.86
7182;BME280;3632;42.724;23.298;2023-04-04T08:41:15;94390.13;;;6.02;89.15
7182;BME280;3632;42.724;23.298;2023-04-04T08:43:43;94154.09;;;5.14;88.70
7182;BME280;3632;42.724;23.298;2023-04-04T08:46:11;94297.47;;;6.01;89.46
7182;BME280;3632;42.724;23.298;2023-04-04T08:48:40;94293.66;;;5.95;89.53
7182;BME280;3632;42.724;23.298;2023-04-04T08:51:09;94167.97;;;4.97;89.56
7182;BME280;3632;42.724;23.298;2023-04-04T08:53:37;94298.41;;;5.89;89.81
7182;BME280;3632;42.724;23.298;2023-04-04T08:56:05;94328.16;;;5.96;89.67
7182;BME280;3632;42.724;23.298;2023-04-04T08:58:31;94397.19;;;5.86;89.91
7182;BME280;3632;42.724;23.298;2023-04-04T09:00:58;94323.78;;;6.10;89.27
7182;BME280;3632;42.724;23.298;2023-04-04T09:03:26;94282.28;;;6.12;94.55
7182;BME280;3632;42.724;23.298;2023-04-04T09:05:57;94261.59;;;9.49;100.00
7182;BME280;3632;42.724;23.298;2023-04-04T09:08:25;94315.72;;;9.78;71.24
7182;BME280;3632;42.724;23.298;2023-04-04T09:10:53;94316.97;;;8.09;75.04
7182;BME280;3632;42.724;23.298;2023-04-04T09:13:21;94323.91;;;7.47;79.42
7182;BME280;3632;42.724;23.298;2023-04-04T09:15:49;94325.53;;;6.95;82.32
7182;BME280;3632;42.724;23.298;2023-04-04T09:18:17;94285.31;;;6.38;83.91
7182;BME280;3632;42.724;23.298;2023-04-04T09:20:44;93720.38;;;2.35;82.76
7182;BME280;3632;42.724;23.298;2023-04-04T09:23:11;94342.88;;;6.14;83.46
7182;BME280;3632;42.724;23.298;2023-04-04T09:25:44;94329.88;;;5.96;85.25
7182;BME280;3632;42.724;23.298;2023-04-04T09:28:13;94337.34;;;6.09;85.77
7182;BME280;3632;42.724;23.298;2023-04-04T09:30:40;94296.41;;;5.70;85.23
7182;BME280;3632;42.724;23.298;2023-04-04T09:33:10;93852.28;;;2.42;84.93
7182;BME280;3632;42.724;23.298;2023-04-04T09:35:38;94339.41;;;6.04;85.36
7182;BME280;3632;42.724;23.298;2023-04-04T09:38:06;94230.94;;;4.42;86.27
7182;BME280;3632;42.724;23.298;2023-04-04T09:40:33;94343.09;;;6.00;86.61
7182;BME280;3632;42.724;23.298;2023-04-04T09:43:03;94338.69;;;5.79;85.95
7182;BME280;3632;42.724;23.298;2023-04-04T09:45:33;94352.16;;;5.91;85.74
7182;BME280;3632;42.724;23.298;2023-04-04T09:48:01;94349.59;;;5.58;85.36
7182;BME280;3632;42.724;23.298;2023-04-04T09:50:27;94463.06;;;5.49;85.46
7182;BME280;3632;42.724;23.298;2023-04-04T09:52:55;94346.97;;;5.70;85.98
7182;BME280;3632;42.724;23.298;2023-04-04T09:55:31;94351.59;;;5.87;85.65
7182;BME280;3632;42.724;23.298;2023-04-04T09:57:58;94355.84;;;5.87;86.06
7182;BME280;3632;42.724;23.298;2023-04-04T10:00:29;94060.78;;;3.78;86.11
7182;BME280;3632;42.724;23.298;2023-04-04T10:03:04;94353.41;;;5.74;85.75
7182;BME280;3632;42.724;23.298;2023-04-04T10:05:31;93784.94;;;2.10;85.80
7182;BME280;3632;42.724;23.298;2023-04-04T10:07:58;94269.47;;;5.14;86.32
7182;BME280;3632;42.724;23.298;2023-04-04T10:10:26;94291.13;;;5.51;87.01
7182;BME280;3632;42.724;23.298;2023-04-04T10:12:56;94353.44;;;5.96;86.75
7182;BME280;3632;42.724;23.298;2023-04-04T10:15:23;94355.16;;;5.85;87.69
7182;BME280;3632;42.724;23.298;2023-04-04T10:17:52;94372.75;;;5.86;86.80
7182;BME280;3632;42.724;23.298;2023-04-04T10:20:21;94360.78;;;6.00;85.07
7182;BME280;3632;42.724;23.298;2023-04-04T10:22:48;94364.72;;;5.92;85.56
7182;BME280;3632;42.724;23.298;2023-04-04T10:25:16;94373.69;;;5.96;86.25
7182;BME280;3632;42.724;23.298;2023-04-04T10:27:43;94373.22;;;5.91;85.45
7182;BME280;3632;42.724;23.298;2023-04-04T10:30:11;94348.63;;;4.67;85.38
7182;BME280;3632;42.724;23.298;2023-04-04T10:32:45;94391.72;;;5.92;85.38
7182;BME280;3632;42.724;23.298;2023-04-04T10:35:16;94381.50;;;6.05;86.00
7182;BME280;3632;42.724;23.298;2023-04-04T10:37:49;94426.34;;;7.12;100.00
7182;BME280;3632;42.724;23.298;2023-04-04T10:40:20;94331.69;;;6.16;85.21
7182;BME280;3632;42.724;23.298;2023-04-04T10:42:50;94254.53;;;7.27;87.15
7182;BME280;3632;42.724;23.298;2023-04-04T10:45:17;94393.31;;;8.57;88.82
7182;BME280;3632;42.724;23.298;2023-04-04T10:47:44;94398.41;;;8.67;90.54
7182;BME280;3632;42.724;23.298;2023-04-04T10:50:11;94404.47;;;8.15;79.05
7182;BME280;3632;42.724;23.298;2023-04-04T10:52:41;94396.72;;;7.45;80.06
7182;BME280;3632;42.724;23.298;2023-04-04T10:55:10;94422.84;;;6.81;83.58
7182;BME280;3632;42.724;23.298;2023-04-04T10:57:40;94270.44;;;5.68;85.38
7182;BME280;3632;42.724;23.298;2023-04-04T11:00:09;94416.44;;;6.33;86.34
7182;BME280;3632;42.724;23.298;2023-04-04T11:02:48;94184.13;;;4.84;87.92
7182;BME280;3632;42.724;23.298;2023-04-04T11:05:21;94411.50;;;6.20;87.16
7182;BME280;3632;42.724;23.298;2023-04-04T11:07:59;94409.88;;;6.08;87.06
7182;BME280;3632;42.724;23.298;2023-04-04T11:10:28;94315.44;;;5.41;86.78
7182;BME280;3632;42.724;23.298;2023-04-04T11:12:56;94418.34;;;5.85;86.42
7182;BME280;3632;42.724;23.298;2023-04-04T11:15:45;94425.34;;;5.81;86.16
7182;BME280;3632;42.724;23.298;2023-04-04T11:18:12;94370.53;;;5.25;85.75
7182;BME280;3632;42.724;23.298;2023-04-04T11:20:41;94436.44;;;5.57;86.55
7182;BME280;3632;42.724;23.298;2023-04-04T11:23:16;94440.09;;;5.52;87.47
7182;BME280;3632;42.724;23.298;2023-04-04T11:25:49;94290.03;;;4.50;87.55
7182;BME280;3632;42.724;23.298;2023-04-04T11:28:27;94440.81;;;5.55;88.73
7182;BME280;3632;42.724;23.298;2023-04-04T11:31:23;94465.16;;;5.56;88.55
7182;BME280;3632;42.724;23.298;2023-04-04T11:33:54;94438.44;;;5.64;88.20
7182;BME280;3632;42.724;23.298;2023-04-04T11:36:50;94444.59;;;5.60;86.72
7182;BME280;3632;42.724;23.298;2023-04-04T11:39:26;94447.25;;;5.59;86.63
7182;BME280;3632;42.724;23.298;2023-04-04T11:41:55;94378.28;;;5.11;85.63
7182;BME280;3632;42.724;23.298;2023-04-04T11:44:24;94098.63;;;3.29;85.04
7182;BME280;3632;42.724;23.298;2023-04-04T11:46:54;94442.75;;;5.27;87.19
7182;BME280;3632;42.724;23.298;2023-04-04T11:49:24;94457.66;;;5.19;87.75
7182;BME280;3632;42.724;23.298;2023-04-04T11:51:54;94473.56;;;5.09;87.67
7182;BME280;3632;42.724;23.298;2023-04-04T11:54:21;93909.41;;;1.78;85.53
7182;BME280;3632;42.724;23.298;2023-04-04T11:56:50;94041.81;;;2.64;86.33
7182;BME280;3632;42.724;23.298;2023-04-04T11:59:18;94444.16;;;5.31;86.06
7182;BME280;3632;42.724;23.298;2023-04-04T12:01:45;94122.69;;;3.33;86.15
7182;BME280;3632;42.724;23.298;2023-04-04T12:04:15;94281.97;;;4.22;86.47
7182;BME280;3632;42.724;23.298;2023-04-04T12:06:46;94378.50;;;4.84;86.85
7182;BME280;3632;42.724;23.298;2023-04-04T12:09:15;94444.59;;;5.25;85.60
7182;BME280;3632;42.724;23.298;2023-04-04T12:11:45;94446.69;;;5.07;86.24
7182;BME280;3632;42.724;23.298;2023-04-04T12:14:17;94329.19;;;4.20;86.27
7182;BME280;3632;42.724;23.298;2023-04-04T12:16:46;94384.41;;;4.48;86.50
7182;BME280;3632;42.724;23.298;2023-04-04T12:19:13;94380.75;;;4.52;86.81
7182;BME280;3632;42.724;23.298;2023-04-04T12:21:40;94458.56;;;4.94;86.11
7182;BME280;3632;42.724;23.298;2023-04-04T12:24:07;94010.13;;;1.21;86.96
7182;BME280;3632;42.724;23.298;2023-04-04T12:26:36;94463.66;;;5.05;86.54
7182;BME280;3632;42.724;23.298;2023-04-04T12:29:03;94460.81;;;4.86;86.17
7182;BME280;3632;42.724;23.298;2023-04-04T12:31:32;94182.41;;;2.29;86.67
7182;BME280;3632;42.724;23.298;2023-04-04T12:33:59;94530.94;;;4.57;86.37
7182;BME280;3632;42.724;23.298;2023-04-04T12:36:28;94440.03;;;4.83;86.96
7182;BME280;3632;42.724;23.298;2023-04-04T12:38:57;94310.06;;;4.04;85.70
7182;BME280;3632;42.724;23.298;2023-04-04T12:41:25;94469.19;;;4.87;86.25
7182;BME280;3632;42.724;23.298;2023-04-04T12:43:59;94282.94;;;3.59;100.00
7182;BME280;3632;42.724;23.298;2023-04-04T12:46:35;94079.63;;;6.47;100.00
7182;BME280;3632;42.724;23.298;2023-04-04T12:49:04;94194.25;;;8.97;77.57
7182;BME280;3632;42.724;23.298;2023-04-04T12:51:34;94003.53;;;7.28;62.82
7182;BME280;3632;42.724;23.298;2023-04-04T12:54:05;94213.16;;;6.75;66.19
7182;BME280;3632;42.724;23.298;2023-04-04T12:56:33;94108.41;;;4.73;71.06
7182;BME280;3632;42.724;23.298;2023-04-04T12:59:02;94363.28;;;5.55;75.17
7182;BME280;3632;42.724;23.298;2023-04-04T13:01:30;94479.00;;;6.20;76.75
7182;BME280;3632;42.724;23.298;2023-04-04T13:04:01;93951.41;;;2.50;79.22
7182;BME280;3632;42.724;23.298;2023-04-04T13:06:29;94508.00;;;5.57;81.32
7182;BME280;3632;42.724;23.298;2023-04-04T13:08:57;94434.78;;;4.73;83.02
7182;BME280;3632;42.724;23.298;2023-04-04T13:11:25;94387.91;;;3.96;84.53
7182;BME280;3632;42.724;23.298;2023-04-04T13:14:00;94445.69;;;3.87;87.58
7182;BME280;3632;42.724;23.298;2023-04-04T13:16:31;93949.34;;;1.04;88.04
7182;BME280;3632;42.724;23.298;2023-04-04T13:19:01;94409.19;;;4.05;88.10
7182;BME280;3632;42.724;23.298;2023-04-04T13:21:30;94465.06;;;4.11;88.87